Gulden Leeuw — PCBH — position and weather

sailwx.info

Track history (hours):
 
Tides and Currents Weather Stations Pressure Air Temp Water Temp Dewpoint Dewpoint Depression Visibility Wind Speed Wind Dir Waves Ship Positions

Gulden Leeuw

Last reported at 2019-Apr-26 03:28 UTC. Time now 2019-Apr-26 03:47 UTC.
Position N 59°16' E 022°17'.

Length 57 m; draft 4.2 m.

Type: Sailing vessel. MMSI: 246709000.

Date/timePositionNaut miles runAvg speedWind from/ knotsBaromVisibWave heightAir tempDewpointWater temp
2019-Apr-26 03:28N 59°16' E 022°17'268 7.3
2019-Apr-24 14:54N 55°07' E 019°15'3 6.7
2019-Apr-24 14:29N 55°05' E 019°14'4 7.9
2019-Apr-24 14:00N 55°01' E 019°11'4 7.6
2019-Apr-24 13:30N 54°57' E 019°09'4 7.8
2019-Apr-24 13:00N 54°54' E 019°07'4 7.2
2019-Apr-24 12:30N 54°50' E 019°05'4 7.5
2019-Apr-24 12:00N 54°47' E 019°02'3 6.7
2019-Apr-24 11:30N 54°44' E 019°00'3 6.7
2019-Apr-24 11:00N 54°41' E 018°58'3 6.9
2019-Apr-24 10:30N 54°37' E 018°56'5 9.3
2019-Apr-24 10:00N 54°34' E 018°51'4 8.0
2019-Apr-24 09:30N 54°32' E 018°45'4 7.1
2019-Apr-24 09:00N 54°31' E 018°39'3 6.0
2019-Apr-24 08:30N 54°31' E 018°34'0 0.8
2019-Apr-24 07:59N 54°31' E 018°34'0 0.0
2019-Apr-24 07:29N 54°31' E 018°34'0 0.0
2019-Apr-24 06:56N 54°31' E 018°34'0 0.0
2019-Apr-24 06:29N 54°31' E 018°34'0 0.0
2019-Apr-24 05:56N 54°31' E 018°34'0 0.0
2019-Apr-24 05:29N 54°31' E 018°34'0 0.0
2019-Apr-24 04:56N 54°31' E 018°34'0 0.0
2019-Apr-24 04:29N 54°31' E 018°34'0 0.0
2019-Apr-24 03:59N 54°31' E 018°34'0 0.0
2019-Apr-24 03:29N 54°31' E 018°34'0 0.0
2019-Apr-24 02:59N 54°31' E 018°34'0 0.0
2019-Apr-24 02:29N 54°31' E 018°34'0 0.0
2019-Apr-24 01:59N 54°31' E 018°34'0 0.0
2019-Apr-24 01:29N 54°31' E 018°34'0 0.0
2019-Apr-24 00:56N 54°31' E 018°34'0 0.0
2019-Apr-24 00:26N 54°31' E 018°34'0 0.0
2019-Apr-23 23:59N 54°31' E 018°34'0 0.0
2019-Apr-23 23:29N 54°31' E 018°34'0 0.0
2019-Apr-23 22:59N 54°31' E 018°34'0 0.0
2019-Apr-23 22:29N 54°31' E 018°34'0 0.0
2019-Apr-23 21:59N 54°31' E 018°34'0 0.0
2019-Apr-23 21:29N 54°31' E 018°34'0 0.0
2019-Apr-23 20:59N 54°31' E 018°34'0 0.0
2019-Apr-23 20:29N 54°31' E 018°34'0 0.0
2019-Apr-23 19:59N 54°31' E 018°34'0 0.0
2019-Apr-23 19:29N 54°31' E 018°34'0 0.0
2019-Apr-23 18:59N 54°31' E 018°34'0 0.0
2019-Apr-23 18:29N 54°31' E 018°34'0 0.0
2019-Apr-23 17:59N 54°31' E 018°34'0 0.0
2019-Apr-23 17:29N 54°31' E 018°34'0 0.0
2019-Apr-23 16:59N 54°31' E 018°34'0 0.0
2019-Apr-23 16:29N 54°31' E 018°34'0 0.0
2019-Apr-23 15:53N 54°31' E 018°34'0 0.0
2019-Apr-23 15:29N 54°31' E 018°34'0 0.0
2019-Apr-23 14:59N 54°31' E 018°34'0 0.0
2019-Apr-23 14:29N 54°31' E 018°34'0 0.0
2019-Apr-23 13:59N 54°31' E 018°34'0 0.0
2019-Apr-23 13:29N 54°31' E 018°34'0 0.0
2019-Apr-23 12:59N 54°31' E 018°34'0 0.0
2019-Apr-23 12:26N 54°31' E 018°34'0 0.0
2019-Apr-23 11:59N 54°31' E 018°34'0 0.0
2019-Apr-23 11:29N 54°31' E 018°34'0 0.0
2019-Apr-23 10:56N 54°31' E 018°34'0 0.0
2019-Apr-23 10:29N 54°31' E 018°34'0 0.0
2019-Apr-23 09:56N 54°31' E 018°34'0 0.0
2019-Apr-23 09:29N 54°31' E 018°34'0 0.0
2019-Apr-23 08:59N 54°31' E 018°34'0 0.0
2019-Apr-23 08:29N 54°31' E 018°34'0 0.0
2019-Apr-23 07:56N 54°31' E 018°34'0 0.0
2019-Apr-23 07:29N 54°31' E 018°34'0 0.0
2019-Apr-23 06:56N 54°31' E 018°34'0 0.0
2019-Apr-23 06:29N 54°31' E 018°34'0 0.0
2019-Apr-23 05:59N 54°31' E 018°34'0 0.0
2019-Apr-23 05:20N 54°31' E 018°34'0 0.0
2019-Apr-23 04:59N 54°31' E 018°34'0 0.0
2019-Apr-23 04:26N 54°31' E 018°34'0 0.0
2019-Apr-23 03:59N 54°31' E 018°34'0 0.0
2019-Apr-23 03:29N 54°31' E 018°34'0 0.0
2019-Apr-23 02:56N 54°31' E 018°34'0 0.0
2019-Apr-23 02:29N 54°31' E 018°34'0 0.0
2019-Apr-23 01:59N 54°31' E 018°34'0 0.0
2019-Apr-23 01:29N 54°31' E 018°34'0 0.0
2019-Apr-23 00:59N 54°31' E 018°34'0 0.0
2019-Apr-23 00:29N 54°31' E 018°34'0 0.0
2019-Apr-22 23:59N 54°31' E 018°34'0 0.0
2019-Apr-22 23:26N 54°31' E 018°34'0 0.0
2019-Apr-22 22:59N 54°31' E 018°34'0 0.0
2019-Apr-22 22:29N 54°31' E 018°34'0 0.0
2019-Apr-22 21:59N 54°31' E 018°34'0 0.0
2019-Apr-22 21:29N 54°31' E 018°34'0 0.0
2019-Apr-22 20:59N 54°31' E 018°34'0 0.0
2019-Apr-22 20:29N 54°31' E 018°34'0 0.0
2019-Apr-22 19:47N 54°31' E 018°34'0 0.0
2019-Apr-22 19:29N 54°31' E 018°34'0 0.0
2019-Apr-22 18:59N 54°31' E 018°34'0 0.0
2019-Apr-22 18:29N 54°31' E 018°34'0 0.0
2019-Apr-22 17:59N 54°31' E 018°34'0 0.0
2019-Apr-22 17:26N 54°31' E 018°34'0 0.0
2019-Apr-22 16:59N 54°31' E 018°34'0 0.0
2019-Apr-22 16:26N 54°31' E 018°34'0 0.0
2019-Apr-22 15:59N 54°31' E 018°34'0 0.0
2019-Apr-22 15:29N 54°31' E 018°34'0 0.0
2019-Apr-22 14:59N 54°31' E 018°34'0 0.0
2019-Apr-22 14:29N 54°31' E 018°34'0 0.0
2019-Apr-22 13:59N 54°31' E 018°34'0 0.0
2019-Apr-22 13:26N 54°31' E 018°34'0 0.0
2019-Apr-22 12:59N 54°31' E 018°34'0 0.0
2019-Apr-22 12:29N 54°31' E 018°34'0 0.0
2019-Apr-22 11:59N 54°31' E 018°34'0 0.0
2019-Apr-22 11:29N 54°31' E 018°34'0 0.0
2019-Apr-22 10:59N 54°31' E 018°34'0 0.0
2019-Apr-22 10:29N 54°31' E 018°34'0 0.0
2019-Apr-22 09:59N 54°31' E 018°34'0 0.0
2019-Apr-22 09:29N 54°31' E 018°34'0 0.0
2019-Apr-22 08:59N 54°31' E 018°34'0 0.0
2019-Apr-22 08:29N 54°31' E 018°34'0 0.0
2019-Apr-22 07:59N 54°31' E 018°34'0 0.0
2019-Apr-22 07:29N 54°31' E 018°34'0 0.0
2019-Apr-22 06:59N 54°31' E 018°34'0 0.0
2019-Apr-22 06:29N 54°31' E 018°34'0 0.0
2019-Apr-22 05:59N 54°31' E 018°34'0 0.0
2019-Apr-22 05:29N 54°31' E 018°34'0 0.0
2019-Apr-22 04:59N 54°31' E 018°34'0 0.0
2019-Apr-22 04:29N 54°31' E 018°34'0 0.0
2019-Apr-22 03:59N 54°31' E 018°34'0 0.0
2019-Apr-22 03:29N 54°31' E 018°34'0 0.0
2019-Apr-22 02:59N 54°31' E 018°34'0 0.0
2019-Apr-22 02:29N 54°31' E 018°34'0 0.0
2019-Apr-22 01:59N 54°31' E 018°34'0 0.0
2019-Apr-22 01:29N 54°31' E 018°34'0 0.0
2019-Apr-22 00:59N 54°31' E 018°34'0 0.0
2019-Apr-22 00:29N 54°31' E 018°34'0 0.0
2019-Apr-21 23:59N 54°31' E 018°34'0 0.0
2019-Apr-21 23:29N 54°31' E 018°34'0 0.0
2019-Apr-21 22:59N 54°31' E 018°34'0 0.0
2019-Apr-21 22:26N 54°31' E 018°34'0 0.0
2019-Apr-21 21:59N 54°31' E 018°34'0 0.0
2019-Apr-21 21:26N 54°31' E 018°34'0 0.0
2019-Apr-21 20:59N 54°31' E 018°34'0 0.0
2019-Apr-21 20:29N 54°31' E 018°34'0 0.0
2019-Apr-21 19:59N 54°31' E 018°34'0 0.0
2019-Apr-21 19:29N 54°31' E 018°34'0 0.0
2019-Apr-21 18:59N 54°31' E 018°34'0 0.0
2019-Apr-21 18:29N 54°31' E 018°34'0 0.0
2019-Apr-21 17:59N 54°31' E 018°34'0 0.0
2019-Apr-21 17:29N 54°31' E 018°34'0 0.0
2019-Apr-21 16:59N 54°31' E 018°34'0 0.0
2019-Apr-21 16:29N 54°31' E 018°34'0 0.0
2019-Apr-21 15:59N 54°31' E 018°34'0 0.0
2019-Apr-21 15:26N 54°31' E 018°34'0 0.0
2019-Apr-21 14:59N 54°31' E 018°34'0 0.0
2019-Apr-21 14:29N 54°31' E 018°34'0 0.0
2019-Apr-21 13:59N 54°31' E 018°34'0 0.0
2019-Apr-21 13:29N 54°31' E 018°34'0 0.0
2019-Apr-21 12:59N 54°31' E 018°34'0 0.0
2019-Apr-21 12:26N 54°31' E 018°34'0 0.0
2019-Apr-21 11:59N 54°31' E 018°34'0 0.0
2019-Apr-21 11:29N 54°31' E 018°34'0 0.0
2019-Apr-21 10:59N 54°31' E 018°34'0 0.0
2019-Apr-21 10:29N 54°31' E 018°34'0 0.0
2019-Apr-21 09:59N 54°31' E 018°34'0 0.0
2019-Apr-21 09:29N 54°31' E 018°34'0 0.0
2019-Apr-21 08:56N 54°31' E 018°34'0 0.0
2019-Apr-21 08:29N 54°31' E 018°34'0 0.0
2019-Apr-21 07:59N 54°31' E 018°34'0 0.0
2019-Apr-21 07:29N 54°31' E 018°34'0 0.0
2019-Apr-21 06:59N 54°31' E 018°34'0 0.0
2019-Apr-21 06:29N 54°31' E 018°34'0 0.0
2019-Apr-21 05:59N 54°31' E 018°34'0 0.0
2019-Apr-21 05:29N 54°31' E 018°34'0 0.0
2019-Apr-21 04:59N 54°31' E 018°34'0 0.0
2019-Apr-21 04:29N 54°31' E 018°34'0 0.0
2019-Apr-21 03:59N 54°31' E 018°34'0 0.0
2019-Apr-21 03:29N 54°31' E 018°34'0 0.0
2019-Apr-21 02:53N 54°31' E 018°34'0 0.0
2019-Apr-21 02:29N 54°31' E 018°34'0 0.0
2019-Apr-21 01:59N 54°31' E 018°34'0 0.0
2019-Apr-21 01:29N 54°31' E 018°34'0 0.0
2019-Apr-21 00:59N 54°31' E 018°34'0 0.0
2019-Apr-21 00:29N 54°31' E 018°34'0 0.0
2019-Apr-20 23:59N 54°31' E 018°34'0 0.0
2019-Apr-20 23:29N 54°31' E 018°34'0 0.0
2019-Apr-20 22:56N 54°31' E 018°34'0 0.0
2019-Apr-20 22:29N 54°31' E 018°34'0 0.0
2019-Apr-20 21:59N 54°31' E 018°34'0 0.0
2019-Apr-20 21:29N 54°31' E 018°34'0 0.0
2019-Apr-20 20:59N 54°31' E 018°34'0 0.0
2019-Apr-20 20:29N 54°31' E 018°34'0 0.0
2019-Apr-20 19:59N 54°31' E 018°34'0 0.0
2019-Apr-20 19:29N 54°31' E 018°34'0 0.0
2019-Apr-20 18:59N 54°31' E 018°34'0 0.0
2019-Apr-20 18:23N 54°31' E 018°34'0 0.0
2019-Apr-20 17:59N 54°31' E 018°34'0 0.0
2019-Apr-20 17:29N 54°31' E 018°34'0 0.0
2019-Apr-20 16:59N 54°31' E 018°34'0 0.0
2019-Apr-20 16:29N 54°31' E 018°34'0 0.0
2019-Apr-20 15:59N 54°31' E 018°34'0 0.0
2019-Apr-20 15:29N 54°31' E 018°34'0 0.0
2019-Apr-20 14:59N 54°31' E 018°34'0 0.0
2019-Apr-20 14:29N 54°31' E 018°34'0 0.0
2019-Apr-20 13:56N 54°31' E 018°34'0 0.0
2019-Apr-20 13:29N 54°31' E 018°34'0 0.0
2019-Apr-20 12:59N 54°31' E 018°34'0 0.0
2019-Apr-20 12:29N 54°31' E 018°34'0 0.0
2019-Apr-20 11:59N 54°31' E 018°34'0 0.0
2019-Apr-20 11:26N 54°31' E 018°34'0 0.0
2019-Apr-20 11:01N 54°31' E 018°34'0 0.0
2019-Apr-20 10:31N 54°31' E 018°34'0 0.0
2019-Apr-20 10:01N 54°31' E 018°34'2 4.9
2019-Apr-20 09:31N 54°32' E 018°38'3 5.4
2019-Apr-20 09:01N 54°33' E 018°42'2 4.0
2019-Apr-20 08:31N 54°34' E 018°45'2 4.3
2019-Apr-20 08:01N 54°34' E 018°48'2 3.8
2019-Apr-20 07:31N 54°36' E 018°51'1 2.9
2019-Apr-20 07:01N 54°37' E 018°51'1 2.9
2019-Apr-20 06:31N 54°38' E 018°51'1 2.6
2019-Apr-20 06:01N 54°40' E 018°51'1 2.1
2019-Apr-20 05:31N 54°41' E 018°50'1 1.5
2019-Apr-20 05:01N 54°41' E 018°49'1 2.2
2019-Apr-20 04:31N 54°42' E 018°48'2 3.0
2019-Apr-20 04:00N 54°44' E 018°47'2 3.5
2019-Apr-20 03:30N 54°45' E 018°45'2 3.9
2019-Apr-20 03:01N 54°46' E 018°42'2 3.6
2019-Apr-20 02:30N 54°47' E 018°40'2 3.3
2019-Apr-20 02:00N 54°48' E 018°38'2 3.7
2019-Apr-20 01:30N 54°49' E 018°35'2 3.6
2019-Apr-20 01:00N 54°50' E 018°32'2 4.1
2019-Apr-20 00:30N 54°51' E 018°29'2 3.9
2019-Apr-20 00:00N 54°51' E 018°26'2 3.9
2019-Apr-19 23:30N 54°52' E 018°23'2 3.9
2019-Apr-19 22:58N 54°53' E 018°19'2 4.1
2019-Apr-19 22:31N 54°54' E 018°16'2 4.2
2019-Apr-19 22:00N 54°54' E 018°13'2 4.1
2019-Apr-19 21:31N 54°54' E 018°09'2 4.1
2019-Apr-19 20:55N 54°54' E 018°05'2 4.0
2019-Apr-19 20:30N 54°54' E 018°02'2 4.0
2019-Apr-19 20:00N 54°54' E 017°59'2 4.0
2019-Apr-19 19:30N 54°54' E 017°55'2 4.1
2019-Apr-19 19:01N 54°54' E 017°52'2 4.2
2019-Apr-19 18:31N 54°54' E 017°48'2 4.0
2019-Apr-19 18:00N 54°54' E 017°45'2 3.8
2019-Apr-19 17:30N 54°54' E 017°41'2 3.7
2019-Apr-19 17:00N 54°54' E 017°38'2 3.5
2019-Apr-19 16:30N 54°54' E 017°35'2 3.5
2019-Apr-19 16:00N 54°53' E 017°32'2 3.6
2019-Apr-19 15:31N 54°53' E 017°29'2 4.0
2019-Apr-19 15:00N 54°53' E 017°25'2 3.6
2019-Apr-19 14:31N 54°52' E 017°22'2 3.7
2019-Apr-19 14:01N 54°52' E 017°19'2 3.6
2019-Apr-19 13:31N 54°51' E 017°16'2 3.0
2019-Apr-19 13:00N 54°51' E 017°14'2 3.2
2019-Apr-19 12:31N 54°51' E 017°11'2 3.3
2019-Apr-19 12:01N 54°50' E 017°08'2 3.5
2019-Apr-19 11:30N 54°50' E 017°05'2 3.5
2019-Apr-19 11:01N 54°50' E 017°02'2 3.4
2019-Apr-19 10:30N 54°49' E 016°60'2 3.6
2019-Apr-19 10:01N 54°49' E 016°56'2 3.4
2019-Apr-19 09:30N 54°48' E 016°54'2 4.4
2019-Apr-19 09:00N 54°48' E 016°50'2 4.3
2019-Apr-19 08:30N 54°47' E 016°46'2 4.3
2019-Apr-19 08:01N 54°47' E 016°42'4 4.1
2019-Apr-19 06:57N 54°46' E 016°35'2 4.2
2019-Apr-19 06:31N 54°46' E 016°32'2 4.4
2019-Apr-19 06:00N 54°46' E 016°28'4 4.5
2019-Apr-19 05:12N 54°45' E 016°22'1 4.4
2019-Apr-19 05:01N 54°45' E 016°20'3 4.9
2019-Apr-19 04:30N 54°45' E 016°16'3 5.7
2019-Apr-19 03:58N 54°45' E 016°11'3 5.6
2019-Apr-19 03:31N 54°45' E 016°07'3 5.6
2019-Apr-19 03:00N 54°44' E 016°02'3 5.6
2019-Apr-19 02:31N 54°44' E 015°57'3 5.4
2019-Apr-19 02:00N 54°43' E 015°52'3 5.4
2019-Apr-19 01:31N 54°43' E 015°48'3 5.4
2019-Apr-19 01:00N 54°43' E 015°43'3 5.1
2019-Apr-19 00:31N 54°42' E 015°39'3 5.1
2019-Apr-19 00:00N 54°42' E 015°34'3 5.2
2019-Apr-18 23:30N 54°42' E 015°30'3 5.4
2019-Apr-18 23:01N 54°41' E 015°25'3 5.8
2019-Apr-18 22:30N 54°41' E 015°20'3 5.7
2019-Apr-18 22:01N 54°40' E 015°15'3 5.6
2019-Apr-18 21:30N 54°40' E 015°11'3 5.9
2019-Apr-18 21:00N 54°39' E 015°06'3 5.6
2019-Apr-18 20:31N 54°39' E 015°01'3 5.7
2019-Apr-18 20:01N 54°39' E 014°56'3 5.5
2019-Apr-18 19:30N 54°38' E 014°51'3 5.3
2019-Apr-18 19:01N 54°38' E 014°47'3 5.4
2019-Apr-18 18:31N 54°37' E 014°42'3 5.3
2019-Apr-18 18:01N 54°36' E 014°38'3 5.3
2019-Apr-18 17:30N 54°36' E 014°33'3 5.3
2019-Apr-18 17:01N 54°36' E 014°29'3 5.5
2019-Apr-18 16:30N 54°35' E 014°24'3 5.1
2019-Apr-18 16:00N 54°36' E 014°20'2 4.9
2019-Apr-18 15:30N 54°37' E 014°16'2 4.4
2019-Apr-18 14:56N 54°37' E 014°11'2 4.8
2019-Apr-18 14:30N 54°38' E 014°08'38 5.1
2019-Apr-18 07:08N 54°42' E 013°03'1 5.5
2019-Apr-18 07:01N 54°42' E 013°02'3 5.5
2019-Apr-18 06:31N 54°41' E 012°58'3 5.4
2019-Apr-18 06:01N 54°41' E 012°53'3 5.5
2019-Apr-18 05:30N 54°41' E 012°48'3 5.5
2019-Apr-18 05:01N 54°39' E 012°44'3 5.6
2019-Apr-18 04:30N 54°38' E 012°39'3 5.4
2019-Apr-18 04:00N 54°37' E 012°35'3 5.6
2019-Apr-18 03:31N 54°36' E 012°31'3 5.4
2019-Apr-18 03:00N 54°35' E 012°27'3 5.3
2019-Apr-18 02:30N 54°33' E 012°23'3 5.3
2019-Apr-18 02:01N 54°32' E 012°19'3 5.4
2019-Apr-18 01:31N 54°30' E 012°16'3 5.4
2019-Apr-18 01:01N 54°28' E 012°14'3 5.4
2019-Apr-18 00:31N 54°26' E 012°10'3 5.7
2019-Apr-18 00:00N 54°25' E 012°06'3 6.5
2019-Apr-17 23:31N 54°25' E 012°00'3 6.4
2019-Apr-17 23:01N 54°25' E 011°55'3 6.4
2019-Apr-17 22:30N 54°25' E 011°49'3 6.3
2019-Apr-17 22:00N 54°25' E 011°44'3 6.5
2019-Apr-17 21:31N 54°27' E 011°39'3 6.4
2019-Apr-17 21:00N 54°28' E 011°34'3 6.2
2019-Apr-17 20:30N 54°29' E 011°29'3 6.4
2019-Apr-17 20:01N 54°31' E 011°24'3 6.3
2019-Apr-17 19:31N 54°32' E 011°19'3 5.8
2019-Apr-17 19:00N 54°33' E 011°15'2 4.9
2019-Apr-17 18:30N 54°33' E 011°10'2 4.8
2019-Apr-17 18:01N 54°34' E 011°06'2 4.6
2019-Apr-17 17:31N 54°34' E 011°02'2 4.2
2019-Apr-17 17:00N 54°34' E 010°59'2 4.6
2019-Apr-17 16:31N 54°34' E 010°55'2 5.0
2019-Apr-17 16:01N 54°34' E 010°50'3 5.3
2019-Apr-17 15:31N 54°34' E 010°46'3 5.2
2019-Apr-17 15:01N 54°33' E 010°41'3 5.2
2019-Apr-17 14:31N 54°33' E 010°37'2 4.9
2019-Apr-17 14:00N 54°32' E 010°33'3 5.0
2019-Apr-17 13:30N 54°32' E 010°29'2 5.0
2019-Apr-17 13:01N 54°31' E 010°25'3 5.7
2019-Apr-17 12:31N 54°30' E 010°20'3 6.6
2019-Apr-17 12:00N 54°27' E 010°16'3 6.7
2019-Apr-17 11:30N 54°25' E 010°13'3 6.0
2019-Apr-17 11:00N 54°22' E 010°10'2 3.7
2019-Apr-17 10:30N 54°23' E 010°12'4 8.2
2019-Apr-17 10:00N 54°27' E 010°14'3 5.5
2019-Apr-17 09:30N 54°29' E 010°18'3 6.3
2019-Apr-17 09:00N 54°26' E 010°14'3 6.7
2019-Apr-17 08:31N 54°23' E 010°12'2 3.8
2019-Apr-17 07:58N 54°22' E 010°09'0 0.0
2019-Apr-17 07:28N 54°22' E 010°09'0 0.0
2019-Apr-17 06:58N 54°22' E 010°09'0 0.0
2019-Apr-17 06:28N 54°22' E 010°09'0 0.0
2019-Apr-17 05:55N 54°22' E 010°09'0 0.0
2019-Apr-17 05:28N 54°22' E 010°09'0 0.0
2019-Apr-17 04:58N 54°22' E 010°09'0 0.0
2019-Apr-17 04:28N 54°22' E 010°09'0 0.0
2019-Apr-17 03:55N 54°22' E 010°09'0 0.0
2019-Apr-17 03:28N 54°22' E 010°09'0 0.0
2019-Apr-17 02:58N 54°22' E 010°09'0 0.0
2019-Apr-17 02:16N 54°22' E 010°09'0 0.0
2019-Apr-17 01:58N 54°22' E 010°09'0 0.0
2019-Apr-17 01:28N 54°22' E 010°09'0 0.0
2019-Apr-17 00:58N 54°22' E 010°09'0 0.0
2019-Apr-17 00:19N 54°22' E 010°09'0 0.0
2019-Apr-16 23:49N 54°22' E 010°09'0 0.0
2019-Apr-16 23:30N 54°22' E 010°09'0 0.0
2019-Apr-16 23:01N 54°22' E 010°09'0 0.0
2019-Apr-16 22:30N 54°22' E 010°09'0 0.0
2019-Apr-16 21:52N 54°22' E 010°09'0 0.0
2019-Apr-16 21:22N 54°22' E 010°09'0 0.0
2019-Apr-16 20:52N 54°22' E 010°09'0 0.0
2019-Apr-16 20:25N 54°22' E 010°09'0 0.0
2019-Apr-16 19:55N 54°22' E 010°09'0 0.0
2019-Apr-16 19:22N 54°22' E 010°09'0 0.0
2019-Apr-16 18:55N 54°22' E 010°09'0 0.0
2019-Apr-16 18:25N 54°22' E 010°09'0 0.0
2019-Apr-16 17:54N 54°22' E 010°09'0 0.0
2019-Apr-16 17:25N 54°22' E 010°09'0 0.0
2019-Apr-16 16:52N 54°22' E 010°09'0 0.0
2019-Apr-16 16:24N 54°22' E 010°09'0 0.0
2019-Apr-16 15:58N 54°22' E 010°09'0 0.0
2019-Apr-16 15:28N 54°22' E 010°09'0 0.0
2019-Apr-16 14:58N 54°22' E 010°09'0 0.0
2019-Apr-16 14:28N 54°22' E 010°09'0 0.0
2019-Apr-16 13:55N 54°22' E 010°09'0 0.0
2019-Apr-16 13:30N 54°22' E 010°09'0 0.7
2019-Apr-16 13:01N 54°22' E 010°09'0 0.0
2019-Apr-16 12:31N 54°22' E 010°09'1 1.6
2019-Apr-16 11:59N 54°22' E 010°07'3 6.9
2019-Apr-16 11:31N 54°22' E 010°02'4 7.8
2019-Apr-16 11:00N 54°21' E 009°55'4 8.1
2019-Apr-16 10:31N 54°22' E 009°48'4 8.1
2019-Apr-16 10:01N 54°19' E 009°43'4 7.4
2019-Apr-16 09:30N 54°17' E 009°38'4 8.2
2019-Apr-16 09:01N 54°13' E 009°35'4 8.4
2019-Apr-16 08:30N 54°11' E 009°29'4 8.6
2019-Apr-16 08:00N 54°09' E 009°23'4 7.9
2019-Apr-16 07:30N 54°06' E 009°20'3 6.4
2019-Apr-16 07:01N 54°03' E 009°18'4 8.3
2019-Apr-16 06:31N 53°59' E 009°16'4 8.5
2019-Apr-16 06:00N 53°55' E 009°12'2 4.5
2019-Apr-16 05:31N 53°54' E 009°09'0 0.3
2019-Apr-16 05:00N 53°54' E 009°09'3 5.3
2019-Apr-16 04:31N 53°53' E 009°05'0 0.4
2019-Apr-16 04:00N 53°53' E 009°04'0 0.0
2019-Apr-16 03:30N 53°53' E 009°04'  
Track history (hours):
 
Tides and Currents Weather Stations Pressure Air Temp Water Temp Dewpoint Dewpoint Depression Visibility Wind Speed Wind Dir Waves Ship Positions

Gulden Leeuw

Last reported at 2019-Apr-26 03:28 UTC. Time now 2019-Apr-26 03:47 UTC.
Position N 59°16' E 022°17'.

Length 57 m; draft 4.2 m.

Type: Sailing vessel. MMSI: 246709000.

Date/timePositionNaut miles runAvg speedWind from/ knotsBaromVisibWave heightAir tempDewpointWater temp
2019-Apr-26 03:28N 59°16' E 022°17'268 7.3
2019-Apr-24 14:54N 55°07' E 019°15'3 6.7
2019-Apr-24 14:29N 55°05' E 019°14'4 7.9
2019-Apr-24 14:00N 55°01' E 019°11'4 7.6
2019-Apr-24 13:30N 54°57' E 019°09'4 7.8
2019-Apr-24 13:00N 54°54' E 019°07'4 7.2
2019-Apr-24 12:30N 54°50' E 019°05'4 7.5
2019-Apr-24 12:00N 54°47' E 019°02'3 6.7
2019-Apr-24 11:30N 54°44' E 019°00'3 6.7
2019-Apr-24 11:00N 54°41' E 018°58'3 6.9
2019-Apr-24 10:30N 54°37' E 018°56'5 9.3
2019-Apr-24 10:00N 54°34' E 018°51'4 8.0
2019-Apr-24 09:30N 54°32' E 018°45'4 7.1
2019-Apr-24 09:00N 54°31' E 018°39'3 6.0
2019-Apr-24 08:30N 54°31' E 018°34'0 0.8
2019-Apr-24 07:59N 54°31' E 018°34'0 0.0
2019-Apr-24 07:29N 54°31' E 018°34'0 0.0
2019-Apr-24 06:56N 54°31' E 018°34'0 0.0
2019-Apr-24 06:29N 54°31' E 018°34'0 0.0
2019-Apr-24 05:56N 54°31' E 018°34'0 0.0
2019-Apr-24 05:29N 54°31' E 018°34'0 0.0
2019-Apr-24 04:56N 54°31' E 018°34'0 0.0
2019-Apr-24 04:29N 54°31' E 018°34'0 0.0
2019-Apr-24 03:59N 54°31' E 018°34'0 0.0
2019-Apr-24 03:29N 54°31' E 018°34'0 0.0
2019-Apr-24 02:59N 54°31' E 018°34'0 0.0
2019-Apr-24 02:29N 54°31' E 018°34'0 0.0
2019-Apr-24 01:59N 54°31' E 018°34'0 0.0
2019-Apr-24 01:29N 54°31' E 018°34'0 0.0
2019-Apr-24 00:56N 54°31' E 018°34'0 0.0
2019-Apr-24 00:26N 54°31' E 018°34'0 0.0
2019-Apr-23 23:59N 54°31' E 018°34'0 0.0
2019-Apr-23 23:29N 54°31' E 018°34'0 0.0
2019-Apr-23 22:59N 54°31' E 018°34'0 0.0
2019-Apr-23 22:29N 54°31' E 018°34'0 0.0
2019-Apr-23 21:59N 54°31' E 018°34'0 0.0
2019-Apr-23 21:29N 54°31' E 018°34'0 0.0
2019-Apr-23 20:59N 54°31' E 018°34'0 0.0
2019-Apr-23 20:29N 54°31' E 018°34'0 0.0
2019-Apr-23 19:59N 54°31' E 018°34'0 0.0
2019-Apr-23 19:29N 54°31' E 018°34'0 0.0
2019-Apr-23 18:59N 54°31' E 018°34'0 0.0
2019-Apr-23 18:29N 54°31' E 018°34'0 0.0
2019-Apr-23 17:59N 54°31' E 018°34'0 0.0
2019-Apr-23 17:29N 54°31' E 018°34'0 0.0
2019-Apr-23 16:59N 54°31' E 018°34'0 0.0
2019-Apr-23 16:29N 54°31' E 018°34'0 0.0
2019-Apr-23 15:53N 54°31' E 018°34'0 0.0
2019-Apr-23 15:29N 54°31' E 018°34'0 0.0
2019-Apr-23 14:59N 54°31' E 018°34'0 0.0
2019-Apr-23 14:29N 54°31' E 018°34'0 0.0
2019-Apr-23 13:59N 54°31' E 018°34'0 0.0
2019-Apr-23 13:29N 54°31' E 018°34'0 0.0
2019-Apr-23 12:59N 54°31' E 018°34'0 0.0
2019-Apr-23 12:26N 54°31' E 018°34'0 0.0
2019-Apr-23 11:59N 54°31' E 018°34'0 0.0
2019-Apr-23 11:29N 54°31' E 018°34'0 0.0
2019-Apr-23 10:56N 54°31' E 018°34'0 0.0
2019-Apr-23 10:29N 54°31' E 018°34'0 0.0
2019-Apr-23 09:56N 54°31' E 018°34'0 0.0
2019-Apr-23 09:29N 54°31' E 018°34'0 0.0
2019-Apr-23 08:59N 54°31' E 018°34'0 0.0
2019-Apr-23 08:29N 54°31' E 018°34'0 0.0
2019-Apr-23 07:56N 54°31' E 018°34'0 0.0
2019-Apr-23 07:29N 54°31' E 018°34'0 0.0
2019-Apr-23 06:56N 54°31' E 018°34'0 0.0
2019-Apr-23 06:29N 54°31' E 018°34'0 0.0
2019-Apr-23 05:59N 54°31' E 018°34'0 0.0
2019-Apr-23 05:20N 54°31' E 018°34'0 0.0
2019-Apr-23 04:59N 54°31' E 018°34'0 0.0
2019-Apr-23 04:26N 54°31' E 018°34'0 0.0
2019-Apr-23 03:59N 54°31' E 018°34'0 0.0
2019-Apr-23 03:29N 54°31' E 018°34'0 0.0
2019-Apr-23 02:56N 54°31' E 018°34'0 0.0
2019-Apr-23 02:29N 54°31' E 018°34'0 0.0
2019-Apr-23 01:59N 54°31' E 018°34'0 0.0
2019-Apr-23 01:29N 54°31' E 018°34'0 0.0
2019-Apr-23 00:59N 54°31' E 018°34'0 0.0
2019-Apr-23 00:29N 54°31' E 018°34'0 0.0
2019-Apr-22 23:59N 54°31' E 018°34'0 0.0
2019-Apr-22 23:26N 54°31' E 018°34'0 0.0
2019-Apr-22 22:59N 54°31' E 018°34'0 0.0
2019-Apr-22 22:29N 54°31' E 018°34'0 0.0
2019-Apr-22 21:59N 54°31' E 018°34'0 0.0
2019-Apr-22 21:29N 54°31' E 018°34'0 0.0
2019-Apr-22 20:59N 54°31' E 018°34'0 0.0
2019-Apr-22 20:29N 54°31' E 018°34'0 0.0
2019-Apr-22 19:47N 54°31' E 018°34'0 0.0
2019-Apr-22 19:29N 54°31' E 018°34'0 0.0
2019-Apr-22 18:59N 54°31' E 018°34'0 0.0
2019-Apr-22 18:29N 54°31' E 018°34'0 0.0
2019-Apr-22 17:59N 54°31' E 018°34'0 0.0
2019-Apr-22 17:26N 54°31' E 018°34'0 0.0
2019-Apr-22 16:59N 54°31' E 018°34'0 0.0
2019-Apr-22 16:26N 54°31' E 018°34'0 0.0
2019-Apr-22 15:59N 54°31' E 018°34'0 0.0
2019-Apr-22 15:29N 54°31' E 018°34'0 0.0
2019-Apr-22 14:59N 54°31' E 018°34'0 0.0
2019-Apr-22 14:29N 54°31' E 018°34'0 0.0
2019-Apr-22 13:59N 54°31' E 018°34'0 0.0
2019-Apr-22 13:26N 54°31' E 018°34'0 0.0
2019-Apr-22 12:59N 54°31' E 018°34'0 0.0
2019-Apr-22 12:29N 54°31' E 018°34'0 0.0
2019-Apr-22 11:59N 54°31' E 018°34'0 0.0
2019-Apr-22 11:29N 54°31' E 018°34'0 0.0
2019-Apr-22 10:59N 54°31' E 018°34'0 0.0
2019-Apr-22 10:29N 54°31' E 018°34'0 0.0
2019-Apr-22 09:59N 54°31' E 018°34'0 0.0
2019-Apr-22 09:29N 54°31' E 018°34'0 0.0
2019-Apr-22 08:59N 54°31' E 018°34'0 0.0
2019-Apr-22 08:29N 54°31' E 018°34'0 0.0
2019-Apr-22 07:59N 54°31' E 018°34'0 0.0
2019-Apr-22 07:29N 54°31' E 018°34'0 0.0
2019-Apr-22 06:59N 54°31' E 018°34'0 0.0
2019-Apr-22 06:29N 54°31' E 018°34'0 0.0
2019-Apr-22 05:59N 54°31' E 018°34'0 0.0
2019-Apr-22 05:29N 54°31' E 018°34'0 0.0
2019-Apr-22 04:59N 54°31' E 018°34'0 0.0
2019-Apr-22 04:29N 54°31' E 018°34'0 0.0
2019-Apr-22 03:59N 54°31' E 018°34'0 0.0
2019-Apr-22 03:29N 54°31' E 018°34'0 0.0
2019-Apr-22 02:59N 54°31' E 018°34'0 0.0
2019-Apr-22 02:29N 54°31' E 018°34'0 0.0
2019-Apr-22 01:59N 54°31' E 018°34'0 0.0
2019-Apr-22 01:29N 54°31' E 018°34'0 0.0
2019-Apr-22 00:59N 54°31' E 018°34'0 0.0
2019-Apr-22 00:29N 54°31' E 018°34'0 0.0
2019-Apr-21 23:59N 54°31' E 018°34'0 0.0
2019-Apr-21 23:29N 54°31' E 018°34'0 0.0
2019-Apr-21 22:59N 54°31' E 018°34'0 0.0
2019-Apr-21 22:26N 54°31' E 018°34'0 0.0
2019-Apr-21 21:59N 54°31' E 018°34'0 0.0
2019-Apr-21 21:26N 54°31' E 018°34'0 0.0
2019-Apr-21 20:59N 54°31' E 018°34'0 0.0
2019-Apr-21 20:29N 54°31' E 018°34'0 0.0
2019-Apr-21 19:59N 54°31' E 018°34'0 0.0
2019-Apr-21 19:29N 54°31' E 018°34'0 0.0
2019-Apr-21 18:59N 54°31' E 018°34'0 0.0
2019-Apr-21 18:29N 54°31' E 018°34'0 0.0
2019-Apr-21 17:59N 54°31' E 018°34'0 0.0
2019-Apr-21 17:29N 54°31' E 018°34'0 0.0
2019-Apr-21 16:59N 54°31' E 018°34'0 0.0
2019-Apr-21 16:29N 54°31' E 018°34'0 0.0
2019-Apr-21 15:59N 54°31' E 018°34'0 0.0
2019-Apr-21 15:26N 54°31' E 018°34'0 0.0
2019-Apr-21 14:59N 54°31' E 018°34'0 0.0
2019-Apr-21 14:29N 54°31' E 018°34'0 0.0
2019-Apr-21 13:59N 54°31' E 018°34'0 0.0
2019-Apr-21 13:29N 54°31' E 018°34'0 0.0
2019-Apr-21 12:59N 54°31' E 018°34'0 0.0
2019-Apr-21 12:26N 54°31' E 018°34'0 0.0
2019-Apr-21 11:59N 54°31' E 018°34'0 0.0
2019-Apr-21 11:29N 54°31' E 018°34'0 0.0
2019-Apr-21 10:59N 54°31' E 018°34'0 0.0
2019-Apr-21 10:29N 54°31' E 018°34'0 0.0
2019-Apr-21 09:59N 54°31' E 018°34'0 0.0
2019-Apr-21 09:29N 54°31' E 018°34'0 0.0
2019-Apr-21 08:56N 54°31' E 018°34'0 0.0
2019-Apr-21 08:29N 54°31' E 018°34'0 0.0
2019-Apr-21 07:59N 54°31' E 018°34'0 0.0
2019-Apr-21 07:29N 54°31' E 018°34'0 0.0
2019-Apr-21 06:59N 54°31' E 018°34'0 0.0
2019-Apr-21 06:29N 54°31' E 018°34'0 0.0
2019-Apr-21 05:59N 54°31' E 018°34'0 0.0
2019-Apr-21 05:29N 54°31' E 018°34'0 0.0
2019-Apr-21 04:59N 54°31' E 018°34'0 0.0
2019-Apr-21 04:29N 54°31' E 018°34'0 0.0
2019-Apr-21 03:59N 54°31' E 018°34'0 0.0
2019-Apr-21 03:29N 54°31' E 018°34'0 0.0
2019-Apr-21 02:53N 54°31' E 018°34'0 0.0
2019-Apr-21 02:29N 54°31' E 018°34'0 0.0
2019-Apr-21 01:59N 54°31' E 018°34'0 0.0
2019-Apr-21 01:29N 54°31' E 018°34'0 0.0
2019-Apr-21 00:59N 54°31' E 018°34'0 0.0
2019-Apr-21 00:29N 54°31' E 018°34'0 0.0
2019-Apr-20 23:59N 54°31' E 018°34'0 0.0
2019-Apr-20 23:29N 54°31' E 018°34'0 0.0
2019-Apr-20 22:56N 54°31' E 018°34'0 0.0
2019-Apr-20 22:29N 54°31' E 018°34'0 0.0
2019-Apr-20 21:59N 54°31' E 018°34'0 0.0
2019-Apr-20 21:29N 54°31' E 018°34'0 0.0
2019-Apr-20 20:59N 54°31' E 018°34'0 0.0
2019-Apr-20 20:29N 54°31' E 018°34'0 0.0
2019-Apr-20 19:59N 54°31' E 018°34'0 0.0
2019-Apr-20 19:29N 54°31' E 018°34'0 0.0
2019-Apr-20 18:59N 54°31' E 018°34'0 0.0
2019-Apr-20 18:23N 54°31' E 018°34'0 0.0
2019-Apr-20 17:59N 54°31' E 018°34'0 0.0
2019-Apr-20 17:29N 54°31' E 018°34'0 0.0
2019-Apr-20 16:59N 54°31' E 018°34'0 0.0
2019-Apr-20 16:29N 54°31' E 018°34'0 0.0
2019-Apr-20 15:59N 54°31' E 018°34'0 0.0
2019-Apr-20 15:29N 54°31' E 018°34'0 0.0
2019-Apr-20 14:59N 54°31' E 018°34'0 0.0
2019-Apr-20 14:29N 54°31' E 018°34'0 0.0
2019-Apr-20 13:56N 54°31' E 018°34'0 0.0
2019-Apr-20 13:29N 54°31' E 018°34'0 0.0
2019-Apr-20 12:59N 54°31' E 018°34'0 0.0
2019-Apr-20 12:29N 54°31' E 018°34'0 0.0
2019-Apr-20 11:59N 54°31' E 018°34'0 0.0
2019-Apr-20 11:26N 54°31' E 018°34'0 0.0
2019-Apr-20 11:01N 54°31' E 018°34'0 0.0
2019-Apr-20 10:31N 54°31' E 018°34'0 0.0
2019-Apr-20 10:01N 54°31' E 018°34'2 4.9
2019-Apr-20 09:31N 54°32' E 018°38'3 5.4
2019-Apr-20 09:01N 54°33' E 018°42'2 4.0
2019-Apr-20 08:31N 54°34' E 018°45'2 4.3
2019-Apr-20 08:01N 54°34' E 018°48'2 3.8
2019-Apr-20 07:31N 54°36' E 018°51'1 2.9
2019-Apr-20 07:01N 54°37' E 018°51'1 2.9
2019-Apr-20 06:31N 54°38' E 018°51'1 2.6
2019-Apr-20 06:01N 54°40' E 018°51'1 2.1
2019-Apr-20 05:31N 54°41' E 018°50'1 1.5
2019-Apr-20 05:01N 54°41' E 018°49'1 2.2
2019-Apr-20 04:31N 54°42' E 018°48'2 3.0
2019-Apr-20 04:00N 54°44' E 018°47'2 3.5
2019-Apr-20 03:30N 54°45' E 018°45'2 3.9
2019-Apr-20 03:01N 54°46' E 018°42'2 3.6
2019-Apr-20 02:30N 54°47' E 018°40'2 3.3
2019-Apr-20 02:00N 54°48' E 018°38'2 3.7
2019-Apr-20 01:30N 54°49' E 018°35'2 3.6
2019-Apr-20 01:00N 54°50' E 018°32'2 4.1
2019-Apr-20 00:30N 54°51' E 018°29'2 3.9
2019-Apr-20 00:00N 54°51' E 018°26'2 3.9
2019-Apr-19 23:30N 54°52' E 018°23'2 3.9
2019-Apr-19 22:58N 54°53' E 018°19'2 4.1
2019-Apr-19 22:31N 54°54' E 018°16'2 4.2
2019-Apr-19 22:00N 54°54' E 018°13'2 4.1
2019-Apr-19 21:31N 54°54' E 018°09'2 4.1
2019-Apr-19 20:55N 54°54' E 018°05'2 4.0
2019-Apr-19 20:30N 54°54' E 018°02'2 4.0
2019-Apr-19 20:00N 54°54' E 017°59'2 4.0
2019-Apr-19 19:30N 54°54' E 017°55'2 4.1
2019-Apr-19 19:01N 54°54' E 017°52'2 4.2
2019-Apr-19 18:31N 54°54' E 017°48'2 4.0
2019-Apr-19 18:00N 54°54' E 017°45'2 3.8
2019-Apr-19 17:30N 54°54' E 017°41'2 3.7
2019-Apr-19 17:00N 54°54' E 017°38'2 3.5
2019-Apr-19 16:30N 54°54' E 017°35'2 3.5
2019-Apr-19 16:00N 54°53' E 017°32'2 3.6
2019-Apr-19 15:31N 54°53' E 017°29'2 4.0
2019-Apr-19 15:00N 54°53' E 017°25'2 3.6
2019-Apr-19 14:31N 54°52' E 017°22'2 3.7
2019-Apr-19 14:01N 54°52' E 017°19'2 3.6
2019-Apr-19 13:31N 54°51' E 017°16'2 3.0
2019-Apr-19 13:00N 54°51' E 017°14'2 3.2
2019-Apr-19 12:31N 54°51' E 017°11'2 3.3
2019-Apr-19 12:01N 54°50' E 017°08'2 3.5
2019-Apr-19 11:30N 54°50' E 017°05'2 3.5
2019-Apr-19 11:01N 54°50' E 017°02'2 3.4
2019-Apr-19 10:30N 54°49' E 016°60'2 3.6
2019-Apr-19 10:01N 54°49' E 016°56'2 3.4
2019-Apr-19 09:30N 54°48' E 016°54'2 4.4
2019-Apr-19 09:00N 54°48' E 016°50'2 4.3
2019-Apr-19 08:30N 54°47' E 016°46'2 4.3
2019-Apr-19 08:01N 54°47' E 016°42'4 4.1
2019-Apr-19 06:57N 54°46' E 016°35'2 4.2
2019-Apr-19 06:31N 54°46' E 016°32'2 4.4
2019-Apr-19 06:00N 54°46' E 016°28'4 4.5
2019-Apr-19 05:12N 54°45' E 016°22'1 4.4
2019-Apr-19 05:01N 54°45' E 016°20'3 4.9
2019-Apr-19 04:30N 54°45' E 016°16'3 5.7
2019-Apr-19 03:58N 54°45' E 016°11'3 5.6
2019-Apr-19 03:31N 54°45' E 016°07'3 5.6
2019-Apr-19 03:00N 54°44' E 016°02'3 5.6
2019-Apr-19 02:31N 54°44' E 015°57'3 5.4
2019-Apr-19 02:00N 54°43' E 015°52'3 5.4
2019-Apr-19 01:31N 54°43' E 015°48'3 5.4
2019-Apr-19 01:00N 54°43' E 015°43'3 5.1
2019-Apr-19 00:31N 54°42' E 015°39'3 5.1
2019-Apr-19 00:00N 54°42' E 015°34'3 5.2
2019-Apr-18 23:30N 54°42' E 015°30'3 5.4
2019-Apr-18 23:01N 54°41' E 015°25'3 5.8
2019-Apr-18 22:30N 54°41' E 015°20'3 5.7
2019-Apr-18 22:01N 54°40' E 015°15'3 5.6
2019-Apr-18 21:30N 54°40' E 015°11'3 5.9
2019-Apr-18 21:00N 54°39' E 015°06'3 5.6
2019-Apr-18 20:31N 54°39' E 015°01'3 5.7
2019-Apr-18 20:01N 54°39' E 014°56'3 5.5
2019-Apr-18 19:30N 54°38' E 014°51'3 5.3
2019-Apr-18 19:01N 54°38' E 014°47'3 5.4
2019-Apr-18 18:31N 54°37' E 014°42'3 5.3
2019-Apr-18 18:01N 54°36' E 014°38'3 5.3
2019-Apr-18 17:30N 54°36' E 014°33'3 5.3
2019-Apr-18 17:01N 54°36' E 014°29'3 5.5
2019-Apr-18 16:30N 54°35' E 014°24'3 5.1
2019-Apr-18 16:00N 54°36' E 014°20'2 4.9
2019-Apr-18 15:30N 54°37' E 014°16'2 4.4
2019-Apr-18 14:56N 54°37' E 014°11'2 4.8
2019-Apr-18 14:30N 54°38' E 014°08'38 5.1
2019-Apr-18 07:08N 54°42' E 013°03'1 5.5
2019-Apr-18 07:01N 54°42' E 013°02'3 5.5
2019-Apr-18 06:31N 54°41' E 012°58'3 5.4
2019-Apr-18 06:01N 54°41' E 012°53'3 5.5
2019-Apr-18 05:30N 54°41' E 012°48'3 5.5
2019-Apr-18 05:01N 54°39' E 012°44'3 5.6
2019-Apr-18 04:30N 54°38' E 012°39'3 5.4
2019-Apr-18 04:00N 54°37' E 012°35'3 5.6
2019-Apr-18 03:31N 54°36' E 012°31'3 5.4
2019-Apr-18 03:00N 54°35' E 012°27'3 5.3
2019-Apr-18 02:30N 54°33' E 012°23'3 5.3
2019-Apr-18 02:01N 54°32' E 012°19'3 5.4
2019-Apr-18 01:31N 54°30' E 012°16'3 5.4
2019-Apr-18 01:01N 54°28' E 012°14'3 5.4
2019-Apr-18 00:31N 54°26' E 012°10'3 5.7
2019-Apr-18 00:00N 54°25' E 012°06'3 6.5
2019-Apr-17 23:31N 54°25' E 012°00'3 6.4
2019-Apr-17 23:01N 54°25' E 011°55'3 6.4
2019-Apr-17 22:30N 54°25' E 011°49'3 6.3
2019-Apr-17 22:00N 54°25' E 011°44'3 6.5
2019-Apr-17 21:31N 54°27' E 011°39'3 6.4
2019-Apr-17 21:00N 54°28' E 011°34'3 6.2
2019-Apr-17 20:30N 54°29' E 011°29'3 6.4
2019-Apr-17 20:01N 54°31' E 011°24'3 6.3
2019-Apr-17 19:31N 54°32' E 011°19'3 5.8
2019-Apr-17 19:00N 54°33' E 011°15'2 4.9
2019-Apr-17 18:30N 54°33' E 011°10'2 4.8
2019-Apr-17 18:01N 54°34' E 011°06'2 4.6
2019-Apr-17 17:31N 54°34' E 011°02'2 4.2
2019-Apr-17 17:00N 54°34' E 010°59'2 4.6
2019-Apr-17 16:31N 54°34' E 010°55'2 5.0
2019-Apr-17 16:01N 54°34' E 010°50'3 5.3
2019-Apr-17 15:31N 54°34' E 010°46'3 5.2
2019-Apr-17 15:01N 54°33' E 010°41'3 5.2
2019-Apr-17 14:31N 54°33' E 010°37'2 4.9
2019-Apr-17 14:00N 54°32' E 010°33'3 5.0
2019-Apr-17 13:30N 54°32' E 010°29'2 5.0
2019-Apr-17 13:01N 54°31' E 010°25'3 5.7
2019-Apr-17 12:31N 54°30' E 010°20'3 6.6
2019-Apr-17 12:00N 54°27' E 010°16'3 6.7
2019-Apr-17 11:30N 54°25' E 010°13'3 6.0
2019-Apr-17 11:00N 54°22' E 010°10'2 3.7
2019-Apr-17 10:30N 54°23' E 010°12'4 8.2
2019-Apr-17 10:00N 54°27' E 010°14'3 5.5
2019-Apr-17 09:30N 54°29' E 010°18'3 6.3
2019-Apr-17 09:00N 54°26' E 010°14'3 6.7
2019-Apr-17 08:31N 54°23' E 010°12'2 3.8
2019-Apr-17 07:58N 54°22' E 010°09'0 0.0
2019-Apr-17 07:28N 54°22' E 010°09'0 0.0
2019-Apr-17 06:58N 54°22' E 010°09'0 0.0
2019-Apr-17 06:28N 54°22' E 010°09'0 0.0
2019-Apr-17 05:55N 54°22' E 010°09'0 0.0
2019-Apr-17 05:28N 54°22' E 010°09'0 0.0
2019-Apr-17 04:58N 54°22' E 010°09'0 0.0
2019-Apr-17 04:28N 54°22' E 010°09'0 0.0
2019-Apr-17 03:55N 54°22' E 010°09'0 0.0
2019-Apr-17 03:28N 54°22' E 010°09'0 0.0
2019-Apr-17 02:58N 54°22' E 010°09'0 0.0
2019-Apr-17 02:16N 54°22' E 010°09'0 0.0
2019-Apr-17 01:58N 54°22' E 010°09'0 0.0
2019-Apr-17 01:28N 54°22' E 010°09'0 0.0
2019-Apr-17 00:58N 54°22' E 010°09'0 0.0
2019-Apr-17 00:19N 54°22' E 010°09'0 0.0
2019-Apr-16 23:49N 54°22' E 010°09'0 0.0
2019-Apr-16 23:30N 54°22' E 010°09'0 0.0
2019-Apr-16 23:01N 54°22' E 010°09'0 0.0
2019-Apr-16 22:30N 54°22' E 010°09'0 0.0
2019-Apr-16 21:52N 54°22' E 010°09'0 0.0
2019-Apr-16 21:22N 54°22' E 010°09'0 0.0
2019-Apr-16 20:52N 54°22' E 010°09'0 0.0
2019-Apr-16 20:25N 54°22' E 010°09'0 0.0
2019-Apr-16 19:55N 54°22' E 010°09'0 0.0
2019-Apr-16 19:22N 54°22' E 010°09'0 0.0
2019-Apr-16 18:55N 54°22' E 010°09'0 0.0
2019-Apr-16 18:25N 54°22' E 010°09'0 0.0
2019-Apr-16 17:54N 54°22' E 010°09'0 0.0
2019-Apr-16 17:25N 54°22' E 010°09'0 0.0
2019-Apr-16 16:52N 54°22' E 010°09'0 0.0
2019-Apr-16 16:24N 54°22' E 010°09'0 0.0
2019-Apr-16 15:58N 54°22' E 010°09'0 0.0
2019-Apr-16 15:28N 54°22' E 010°09'0 0.0
2019-Apr-16 14:58N 54°22' E 010°09'0 0.0
2019-Apr-16 14:28N 54°22' E 010°09'0 0.0
2019-Apr-16 13:55N 54°22' E 010°09'0 0.0
2019-Apr-16 13:30N 54°22' E 010°09'0 0.7
2019-Apr-16 13:01N 54°22' E 010°09'0 0.0
2019-Apr-16 12:31N 54°22' E 010°09'1 1.6
2019-Apr-16 11:59N 54°22' E 010°07'3 6.9
2019-Apr-16 11:31N 54°22' E 010°02'4 7.8
2019-Apr-16 11:00N 54°21' E 009°55'4 8.1
2019-Apr-16 10:31N 54°22' E 009°48'4 8.1
2019-Apr-16 10:01N 54°19' E 009°43'4 7.4
2019-Apr-16 09:30N 54°17' E 009°38'4 8.2
2019-Apr-16 09:01N 54°13' E 009°35'4 8.4
2019-Apr-16 08:30N 54°11' E 009°29'4 8.6
2019-Apr-16 08:00N 54°09' E 009°23'4 7.9
2019-Apr-16 07:30N 54°06' E 009°20'3 6.4
2019-Apr-16 07:01N 54°03' E 009°18'4 8.3
2019-Apr-16 06:31N 53°59' E 009°16'4 8.5
2019-Apr-16 06:00N 53°55' E 009°12'2 4.5
2019-Apr-16 05:31N 53°54' E 009°09'0 0.3
2019-Apr-16 05:00N 53°54' E 009°09'3 5.3
2019-Apr-16 04:31N 53°53' E 009°05'0 0.4
2019-Apr-16 04:00N 53°53' E 009°04'0 0.0
2019-Apr-16 03:30N 53°53' E 009°04'  

Dump ship's entire track history